createdAt,value
2022-07-29T00:02:15.745Z,101802.03
2022-07-29T00:04:45.103Z,101794.41
2022-07-29T00:07:13.055Z,101794.28
2022-07-29T00:09:51.361Z,101794.28
2022-07-29T00:12:25.735Z,101787.38
2022-07-29T00:14:55.196Z,101780.75
2022-07-29T00:17:23.157Z,101790.41
2022-07-29T00:19:52.653Z,101794.72
2022-07-29T00:22:21.367Z,101783.06
2022-07-29T00:24:50.152Z,101782.06
2022-07-29T00:27:18.612Z,101779.34
2022-07-29T00:29:46.646Z,101783.63
2022-07-29T00:32:14.698Z,101781.59
2022-07-29T00:35:00.052Z,101783.38
2022-07-29T00:37:29.681Z,101776.59
2022-07-29T00:39:57.819Z,101780.38
2022-07-29T00:42:25.772Z,101778.94
2022-07-29T00:44:53.730Z,101769.94
2022-07-29T00:47:21.695Z,101773.53
2022-07-29T00:49:49.946Z,101764.16
2022-07-29T00:52:17.955Z,101774.28
2022-07-29T00:54:47.525Z,101769.91
2022-07-29T00:57:15.497Z,101763.22
2022-07-29T00:59:43.479Z,101759.13
2022-07-29T01:02:11.569Z,101758.47
2022-07-29T01:04:39.598Z,101753.00
2022-07-29T01:07:08.019Z,101749.72
2022-07-29T01:09:45.697Z,101750.19
2022-07-29T01:12:19.252Z,101750.13
2022-07-29T01:14:48.285Z,101749.25
2022-07-29T01:17:20.501Z,101741.13
2022-07-29T01:19:53.750Z,101742.34
2022-07-29T01:22:28.858Z,101748.06
2022-07-29T01:25:15.327Z,101738.31
2022-07-29T01:27:54.515Z,101738.50
2022-07-29T01:30:25.067Z,101728.78
2022-07-29T01:32:57.114Z,101731.84
2022-07-29T01:35:27.442Z,101720.50
2022-07-29T01:38:00.839Z,101722.50
2022-07-29T01:40:38.101Z,101719.88
2022-07-29T01:43:11.917Z,101722.44
2022-07-29T01:45:43.318Z,101716.44
2022-07-29T01:48:14.738Z,101707.09
2022-07-29T01:50:47.889Z,101710.97
2022-07-29T01:53:19.058Z,101709.13
2022-07-29T01:55:48.315Z,101716.56
2022-07-29T01:58:16.645Z,101714.19
2022-07-29T02:00:50.234Z,101713.47
2022-07-29T02:03:20.059Z,101707.94
2022-07-29T02:05:49.133Z,101706.94
2022-07-29T02:08:18.951Z,101707.66
2022-07-29T02:10:48.488Z,101706.34
2022-07-29T02:13:18.171Z,101704.50
2022-07-29T02:15:47.077Z,101705.94
2022-07-29T02:18:20.082Z,101696.47
2022-07-29T02:20:50.813Z,101691.13
2022-07-29T02:23:21.344Z,101686.25
2022-07-29T02:25:50.583Z,101683.09
2022-07-29T02:28:21.362Z,101681.66
2022-07-29T02:30:50.269Z,101686.69
2022-07-29T02:33:20.945Z,101682.53
2022-07-29T02:35:49.649Z,101680.22
2022-07-29T02:38:36.110Z,101679.50
2022-07-29T02:41:07.979Z,101679.88
2022-07-29T02:43:36.545Z,101677.75
2022-07-29T02:46:12.739Z,101675.63
2022-07-29T02:49:00.897Z,101672.44
2022-07-29T02:51:43.587Z,101672.00
2022-07-29T02:54:14.059Z,101674.91
2022-07-29T02:56:42.794Z,101668.97
2022-07-29T02:59:12.776Z,101673.75
2022-07-29T03:01:42.807Z,101665.09
2022-07-29T03:04:14.658Z,101666.72
2022-07-29T03:06:43.058Z,101662.69
2022-07-29T03:09:13.702Z,101656.94
2022-07-29T03:11:49.791Z,101673.00
2022-07-29T03:14:20.492Z,101661.50
2022-07-29T03:16:48.992Z,101656.00
2022-07-29T03:19:18.745Z,101661.94
2022-07-29T03:21:46.690Z,101664.66
2022-07-29T03:24:27.670Z,101667.66
2022-07-29T03:26:57.103Z,101661.50
2022-07-29T03:29:25.115Z,101654.00
2022-07-29T03:32:04.298Z,101652.75
2022-07-29T03:34:37.844Z,101656.19
2022-07-29T03:37:06.996Z,101658.91
2022-07-29T03:39:38.966Z,101657.22
2022-07-29T03:42:08.132Z,101654.94
2022-07-29T03:44:37.158Z,101655.91
2022-07-29T03:47:06.609Z,101650.31
2022-07-29T03:49:36.445Z,101651.88
2022-07-29T03:52:04.816Z,101652.75
2022-07-29T03:54:32.766Z,101658.84
2022-07-29T03:57:02.250Z,101653.13
2022-07-29T03:59:30.275Z,101658.75
2022-07-29T04:01:59.062Z,101647.13
2022-07-29T04:04:27.458Z,101651.00
2022-07-29T04:06:58.115Z,101643.47
2022-07-29T04:09:26.055Z,101651.53
2022-07-29T04:12:03.565Z,101656.13
2022-07-29T04:14:33.105Z,101659.13
2022-07-29T04:17:01.356Z,101661.91
2022-07-29T04:19:29.370Z,101662.53
2022-07-29T04:21:58.724Z,101657.94
2022-07-29T04:24:26.866Z,101660.34
2022-07-29T04:26:54.931Z,101663.19
2022-07-29T04:29:22.868Z,101665.50
2022-07-29T04:31:50.823Z,101654.88
2022-07-29T04:34:19.284Z,101665.97
2022-07-29T04:36:47.778Z,101664.19
2022-07-29T04:39:22.769Z,101663.44
2022-07-29T04:41:52.574Z,101655.44
2022-07-29T04:44:26.559Z,101660.78
2022-07-29T04:46:57.867Z,101661.06
2022-07-29T04:49:26.009Z,101663.94
2022-07-29T04:51:53.994Z,101663.81
2022-07-29T04:54:23.325Z,101675.75
2022-07-29T04:56:51.280Z,101666.28
2022-07-29T04:59:19.202Z,101669.88
2022-07-29T05:01:47.184Z,101664.97
2022-07-29T05:04:15.344Z,101666.81
2022-07-29T05:06:43.507Z,101669.28
2022-07-29T05:09:11.483Z,101665.25
2022-07-29T05:11:40.772Z,101665.84
2022-07-29T05:14:08.725Z,101659.66
2022-07-29T05:16:36.634Z,101663.69
2022-07-29T05:19:04.645Z,101662.69
2022-07-29T05:21:32.561Z,101666.75
2022-07-29T05:24:00.507Z,101665.28
2022-07-29T05:26:28.457Z,101667.75
2022-07-29T05:28:58.088Z,101673.53
2022-07-29T05:31:26.163Z,101674.66
2022-07-29T05:33:54.146Z,101669.06
2022-07-29T05:36:22.087Z,101671.34
2022-07-29T05:38:50.078Z,101672.78
2022-07-29T05:41:17.990Z,101671.06
2022-07-29T05:43:45.940Z,101679.97
2022-07-29T05:46:16.306Z,101666.75
2022-07-29T05:48:44.332Z,101672.59
2022-07-29T05:51:12.327Z,101675.06
2022-07-29T05:53:40.525Z,101666.56
2022-07-29T05:56:08.854Z,101669.09
2022-07-29T05:58:37.262Z,101675.31
2022-07-29T06:01:05.303Z,101670.78
2022-07-29T06:03:35.634Z,101674.75
2022-07-29T06:06:03.561Z,101673.63
2022-07-29T06:08:31.475Z,101671.78
2022-07-29T06:10:59.400Z,101672.66
2022-07-29T06:13:27.341Z,101676.06
2022-07-29T06:15:55.331Z,101672.69
2022-07-29T06:18:24.801Z,101667.84
2022-07-29T06:20:54.827Z,101672.84
2022-07-29T06:23:23.180Z,101668.84
2022-07-29T06:25:51.099Z,101671.88
2022-07-29T06:28:19.060Z,101675.06
2022-07-29T06:30:47.088Z,101669.00
2022-07-29T06:33:18.897Z,101670.34
2022-07-29T06:35:53.465Z,101667.94
2022-07-29T06:38:31.276Z,101670.25
2022-07-29T06:41:01.263Z,101670.72
2022-07-29T06:43:32.446Z,101670.47
2022-07-29T06:46:02.330Z,101668.31
2022-07-29T06:48:31.179Z,101671.44
2022-07-29T06:50:59.239Z,101673.00
2022-07-29T06:53:28.575Z,101667.28
2022-07-29T06:55:56.544Z,101665.63
2022-07-29T06:58:24.474Z,101652.88
2022-07-29T07:00:52.496Z,101660.72
2022-07-29T07:03:20.849Z,101659.81
2022-07-29T07:05:48.998Z,101663.88
2022-07-29T07:08:18.080Z,101661.69
2022-07-29T07:10:47.502Z,101653.50
2022-07-29T07:13:18.231Z,101649.41
2022-07-29T07:15:48.755Z,101648.41
2022-07-29T07:18:17.209Z,101645.84
2022-07-29T07:20:45.709Z,101646.72
2022-07-29T07:23:13.809Z,101651.25
2022-07-29T07:25:41.783Z,101639.81
2022-07-29T07:28:11.248Z,101647.97
2022-07-29T07:30:39.198Z,101648.78
2022-07-29T07:33:07.206Z,101648.31
2022-07-29T07:35:35.375Z,101641.94
2022-07-29T07:38:03.461Z,101651.28
2022-07-29T07:40:31.411Z,101644.69
2022-07-29T07:42:59.365Z,101651.03
2022-07-29T07:45:29.465Z,101654.38
2022-07-29T07:47:57.402Z,101653.44
2022-07-29T07:50:25.907Z,101659.81
2022-07-29T07:52:55.988Z,101644.25
2022-07-29T07:55:24.074Z,101651.13
2022-07-29T07:57:52.150Z,101641.84
2022-07-29T08:00:23.247Z,101649.06
2022-07-29T08:02:53.305Z,101646.00
2022-07-29T08:05:21.630Z,101654.38
2022-07-29T08:07:49.561Z,101643.38
2022-07-29T08:10:38.999Z,101647.00
2022-07-29T08:13:07.903Z,101652.84
2022-07-29T08:15:35.956Z,101648.00
2022-07-29T08:18:08.784Z,101651.06
2022-07-29T08:20:37.494Z,101642.50
2022-07-29T08:23:07.027Z,101645.44
2022-07-29T08:25:38.650Z,101647.25
2022-07-29T08:28:08.187Z,101646.47
2022-07-29T08:30:36.821Z,101634.72
2022-07-29T08:33:06.175Z,101635.69
2022-07-29T08:35:35.733Z,101644.94
2022-07-29T08:38:04.798Z,101640.06
2022-07-29T08:40:32.935Z,101638.00
2022-07-29T08:43:01.858Z,101638.69
2022-07-29T08:45:30.497Z,101638.63
2022-07-29T08:47:59.085Z,101641.03
2022-07-29T08:50:28.384Z,101642.97
2022-07-29T08:52:59.719Z,101649.53
2022-07-29T08:55:28.413Z,101640.38
2022-07-29T08:57:57.345Z,101641.25
2022-07-29T09:00:26.359Z,101635.63
2022-07-29T09:02:59.707Z,101636.00
2022-07-29T09:05:29.969Z,101627.31
2022-07-29T09:07:58.380Z,101635.94
2022-07-29T09:10:26.634Z,101636.06
2022-07-29T09:12:54.624Z,101632.63
2022-07-29T09:15:22.718Z,101634.00
2022-07-29T09:17:51.782Z,101637.38
2022-07-29T09:20:20.905Z,101632.97
2022-07-29T09:22:51.876Z,101641.66
2022-07-29T09:25:34.598Z,101634.66
2022-07-29T09:28:08.805Z,101635.63
2022-07-29T09:30:37.307Z,101633.22
2022-07-29T09:33:05.690Z,101636.81
2022-07-29T09:35:33.899Z,101638.13
2022-07-29T09:38:13.640Z,101642.53
2022-07-29T09:40:42.096Z,101642.81
2022-07-29T09:43:13.830Z,101641.47
2022-07-29T09:45:42.121Z,101639.97
2022-07-29T09:48:18.262Z,101635.59
2022-07-29T09:50:47.967Z,101641.16
2022-07-29T09:53:32.406Z,101627.66
2022-07-29T09:56:00.806Z,101627.56
2022-07-29T09:58:29.178Z,101625.66
2022-07-29T10:00:58.263Z,101630.00
2022-07-29T10:03:26.779Z,101622.84
2022-07-29T10:06:11.286Z,101622.16
2022-07-29T10:08:41.894Z,101619.66
2022-07-29T10:11:14.370Z,101612.28
2022-07-29T10:13:43.393Z,101621.97
2022-07-29T10:16:11.443Z,101621.63
2022-07-29T10:18:42.155Z,101620.44
2022-07-29T10:21:11.092Z,101628.97
2022-07-29T10:23:52.032Z,101617.56
2022-07-29T10:26:20.408Z,101617.19
2022-07-29T10:28:48.405Z,101616.72
2022-07-29T10:31:27.123Z,101614.41
2022-07-29T10:34:04.350Z,101606.94
2022-07-29T10:36:44.565Z,101606.28
2022-07-29T10:39:25.421Z,101598.69
2022-07-29T10:42:11.430Z,101599.69
2022-07-29T10:44:42.653Z,101602.09
2022-07-29T10:47:10.862Z,101595.97
2022-07-29T10:49:41.076Z,101601.88
2022-07-29T10:52:10.483Z,101595.91
2022-07-29T10:54:43.885Z,101600.00
2022-07-29T10:57:16.924Z,101591.47
2022-07-29T10:59:46.313Z,101591.50
2022-07-29T11:02:45.964Z,101586.03
2022-07-29T11:05:15.495Z,101584.19
2022-07-29T11:08:25.996Z,101591.03
2022-07-29T11:11:44.133Z,101586.59
2022-07-29T11:14:26.499Z,101588.56
2022-07-29T11:17:06.109Z,101585.94
2022-07-29T11:19:35.837Z,101578.09
2022-07-29T11:22:05.376Z,101583.25
2022-07-29T11:24:35.255Z,101580.69
2022-07-29T11:27:10.869Z,101575.09
2022-07-29T11:29:51.139Z,101570.66
2022-07-29T11:32:22.687Z,101574.50
2022-07-29T11:34:52.577Z,101576.84
2022-07-29T11:37:28.378Z,101573.00
2022-07-29T11:40:20.210Z,101571.91
2022-07-29T11:42:51.865Z,101574.47
2022-07-29T11:45:42.592Z,101576.28
2022-07-29T11:48:28.982Z,101571.09
2022-07-29T11:50:59.490Z,101558.47
2022-07-29T11:53:29.204Z,101557.84
2022-07-29T11:56:02.663Z,101556.56
2022-07-29T11:58:31.893Z,101558.22
2022-07-29T12:01:04.748Z,101550.53
2022-07-29T12:03:35.929Z,101553.41
2022-07-29T12:06:22.165Z,101553.47
2022-07-29T12:08:50.476Z,101558.06
2022-07-29T12:11:21.216Z,101539.94
2022-07-29T12:13:52.391Z,101545.84
2022-07-29T12:16:25.318Z,101548.59
2022-07-29T12:19:02.373Z,101553.91
2022-07-29T12:21:31.234Z,101548.13
2022-07-29T12:24:05.917Z,101545.59
2022-07-29T12:26:37.799Z,101543.09
2022-07-29T12:29:11.227Z,101537.38
2022-07-29T12:31:45.702Z,101535.19
2022-07-29T12:34:14.425Z,101536.06
2022-07-29T12:36:44.118Z,101551.34
2022-07-29T12:39:12.544Z,101536.41
2022-07-29T12:41:40.780Z,101532.28
2022-07-29T12:44:08.771Z,101542.66
2022-07-29T12:46:37.198Z,101538.56
2022-07-29T12:49:06.792Z,101540.31
2022-07-29T12:51:37.487Z,101539.34
2022-07-29T12:54:07.945Z,101552.22
2022-07-29T12:56:44.387Z,101535.03
2022-07-29T12:59:17.856Z,101537.16
2022-07-29T13:01:48.059Z,101538.75
2022-07-29T13:04:28.621Z,101540.06
2022-07-29T13:07:06.499Z,101524.50
2022-07-29T13:09:42.290Z,101527.06
2022-07-29T13:12:11.804Z,101523.09
2022-07-29T13:14:41.078Z,101519.28
2022-07-29T13:17:10.517Z,101518.94
2022-07-29T13:19:42.390Z,101513.66
2022-07-29T13:22:11.446Z,101505.88
2022-07-29T13:24:50.403Z,101507.84
2022-07-29T13:27:18.425Z,101513.94
2022-07-29T13:29:47.422Z,101514.06
2022-07-29T13:32:15.910Z,101513.06
2022-07-29T13:34:45.281Z,101503.97
2022-07-29T13:37:13.234Z,101499.50
2022-07-29T13:39:41.162Z,101499.69
2022-07-29T13:42:11.015Z,101502.84
2022-07-29T13:44:39.290Z,101507.47
2022-07-29T13:47:08.099Z,101505.81
2022-07-29T13:49:36.077Z,101502.63
2022-07-29T13:52:08.389Z,101501.59
2022-07-29T13:54:41.977Z,101494.69
2022-07-29T13:57:11.845Z,101489.19
2022-07-29T13:59:40.275Z,101488.25
2022-07-29T14:02:08.469Z,101490.59
2022-07-29T14:04:36.886Z,101491.97
2022-07-29T14:07:09.304Z,101486.41
2022-07-29T14:09:41.089Z,101483.63
2022-07-29T14:12:10.565Z,101471.75
2022-07-29T14:14:38.578Z,101481.09
2022-07-29T14:17:07.527Z,101481.53
2022-07-29T14:19:38.975Z,101483.28
2022-07-29T14:22:10.678Z,101476.56
2022-07-29T14:24:46.250Z,101490.56
2022-07-29T14:27:16.825Z,101468.97
2022-07-29T14:29:50.426Z,101470.31
2022-07-29T14:32:22.328Z,101463.94
2022-07-29T14:34:50.283Z,101476.28
2022-07-29T14:37:20.091Z,101461.13
2022-07-29T14:39:48.035Z,101465.53
2022-07-29T14:42:15.995Z,101461.91
2022-07-29T14:44:44.678Z,101463.41
2022-07-29T14:47:12.708Z,101464.13
2022-07-29T14:49:40.679Z,101464.59
2022-07-29T14:52:08.608Z,101453.81
2022-07-29T14:54:37.932Z,101463.59
2022-07-29T14:57:05.966Z,101454.84
2022-07-29T14:59:33.997Z,101452.34
2022-07-29T15:02:02.479Z,101461.84
2022-07-29T15:04:31.183Z,101466.47
2022-07-29T15:06:59.165Z,101466.00
2022-07-29T15:09:27.093Z,101466.94
2022-07-29T15:11:56.865Z,101475.94
2022-07-29T15:14:25.023Z,101470.31
2022-07-29T15:16:53.082Z,101477.13
2022-07-29T15:19:21.153Z,101469.31
2022-07-29T15:21:49.280Z,101464.91
2022-07-29T15:24:17.729Z,101470.50
2022-07-29T15:26:45.979Z,101469.41
2022-07-29T15:29:15.642Z,101469.41
2022-07-29T15:31:44.280Z,101466.31
2022-07-29T15:34:12.609Z,101468.44
2022-07-29T15:36:56.299Z,101465.63
2022-07-29T15:39:24.378Z,101461.50
2022-07-29T15:41:52.962Z,101465.59
2022-07-29T15:44:22.933Z,101466.72
2022-07-29T15:47:07.183Z,101461.78
2022-07-29T15:49:48.178Z,101462.78
2022-07-29T15:52:25.506Z,101458.41
2022-07-29T15:54:55.083Z,101461.31
2022-07-29T15:57:23.665Z,101454.78
2022-07-29T15:59:53.208Z,101462.09
2022-07-29T16:02:21.214Z,101450.34
2022-07-29T16:04:49.593Z,101453.88
2022-07-29T16:07:17.569Z,101450.66
2022-07-29T16:09:50.729Z,101448.81
2022-07-29T16:12:20.835Z,101450.72
2022-07-29T16:14:51.199Z,101460.72
2022-07-29T16:17:21.090Z,101449.03
2022-07-29T16:19:49.529Z,101441.94
2022-07-29T16:22:17.631Z,101444.41
2022-07-29T16:24:46.062Z,101440.38
2022-07-29T16:27:13.987Z,101438.59
2022-07-29T16:29:41.967Z,101438.81
2022-07-29T16:32:09.992Z,101439.41
2022-07-29T16:34:39.907Z,101433.47
2022-07-29T16:37:07.850Z,101429.88
2022-07-29T16:39:35.784Z,101432.03
2022-07-29T16:42:05.452Z,101432.22
2022-07-29T16:44:34.881Z,101433.28
2022-07-29T16:47:04.014Z,101439.53
2022-07-29T16:49:32.730Z,101428.88
2022-07-29T16:52:02.056Z,101434.50
2022-07-29T16:54:30.050Z,101429.13
2022-07-29T16:57:00.718Z,101425.44
2022-07-29T16:59:29.433Z,101428.84
2022-07-29T17:01:57.887Z,101427.22
2022-07-29T17:04:27.552Z,101414.09
2022-07-29T17:06:56.045Z,101419.44
2022-07-29T17:09:25.626Z,101413.16
2022-07-29T17:11:55.165Z,101414.88
2022-07-29T17:14:24.999Z,101408.31
2022-07-29T17:17:00.893Z,101413.19
2022-07-29T17:19:30.501Z,101418.81
2022-07-29T17:22:08.385Z,101410.66
2022-07-29T17:24:41.262Z,101412.25
2022-07-29T17:27:09.502Z,101416.03
2022-07-29T17:29:37.526Z,101428.47
2022-07-29T17:32:07.495Z,101424.13
2022-07-29T17:34:36.403Z,101424.88
2022-07-29T17:37:04.543Z,101428.88
2022-07-29T17:39:32.874Z,101425.47
2022-07-29T17:42:02.418Z,101424.56
2022-07-29T17:44:30.475Z,101424.88
2022-07-29T17:46:58.727Z,101425.69
2022-07-29T17:49:27.320Z,101431.28
2022-07-29T17:52:00.376Z,101428.47
2022-07-29T17:54:28.931Z,101425.72
2022-07-29T17:56:57.355Z,101433.22
2022-07-29T17:59:27.135Z,101428.72
2022-07-29T18:01:55.438Z,101431.50
2022-07-29T18:04:23.709Z,101428.94
2022-07-29T18:06:51.895Z,101419.13
2022-07-29T18:09:20.217Z,101417.41
2022-07-29T18:11:48.926Z,101417.34
2022-07-29T18:14:17.291Z,101419.53
2022-07-29T18:16:46.808Z,101418.69
2022-07-29T18:19:14.960Z,101416.97
2022-07-29T18:21:54.742Z,101409.44
2022-07-29T18:24:25.524Z,101414.97
2022-07-29T18:26:53.762Z,101409.41
2022-07-29T18:29:21.952Z,101409.22
2022-07-29T18:31:51.471Z,101407.72
2022-07-29T18:34:19.426Z,101408.31
2022-07-29T18:36:47.445Z,101406.22
2022-07-29T18:39:20.632Z,101416.97
2022-07-29T18:41:51.053Z,101410.16
2022-07-29T18:44:22.050Z,101413.94
2022-07-29T18:46:52.516Z,101411.72
2022-07-29T18:49:20.714Z,101413.34
2022-07-29T18:51:48.851Z,101420.59
2022-07-29T18:54:17.633Z,101418.34
2022-07-29T18:56:45.987Z,101418.06
2022-07-29T18:59:16.959Z,101422.19
2022-07-29T19:01:46.190Z,101422.53
2022-07-29T19:04:15.721Z,101431.91
2022-07-29T19:06:43.766Z,101431.75
2022-07-29T19:09:12.336Z,101431.25
2022-07-29T19:11:41.001Z,101435.97
2022-07-29T19:14:08.986Z,101439.28
2022-07-29T19:16:37.001Z,101440.88
2022-07-29T19:19:06.428Z,101440.13
2022-07-29T19:21:36.011Z,101449.78
2022-07-29T19:24:07.435Z,101451.53
2022-07-29T19:26:39.441Z,101448.66
2022-07-29T19:29:07.404Z,101451.28
2022-07-29T19:31:35.486Z,101452.06
2022-07-29T19:34:03.514Z,101451.22
2022-07-29T19:36:31.550Z,101449.78
2022-07-29T19:39:01.115Z,101451.28
2022-07-29T19:41:29.493Z,101453.16
2022-07-29T19:43:57.688Z,101458.94
2022-07-29T19:46:28.899Z,101447.25
2022-07-29T19:48:57.477Z,101452.09
2022-07-29T19:51:25.779Z,101452.16
2022-07-29T19:53:53.737Z,101453.94
2022-07-29T19:56:26.651Z,101451.69
2022-07-29T19:58:54.694Z,101447.38
2022-07-29T20:01:23.374Z,101450.53
2022-07-29T20:03:51.831Z,101452.19
2022-07-29T20:06:19.771Z,101459.13
2022-07-29T20:08:47.938Z,101455.44
2022-07-29T20:11:16.026Z,101458.06
2022-07-29T20:13:45.365Z,101456.22
2022-07-29T20:16:13.371Z,101450.09
2022-07-29T20:18:41.399Z,101457.75
2022-07-29T20:21:09.349Z,101455.72
2022-07-29T20:23:37.447Z,101463.47
2022-07-29T20:26:09.254Z,101453.06
2022-07-29T20:28:39.517Z,101462.34
2022-07-29T20:31:09.127Z,101453.22
2022-07-29T20:33:37.221Z,101453.78
2022-07-29T20:36:06.041Z,101462.50
2022-07-29T20:38:33.978Z,101446.38
2022-07-29T20:41:01.925Z,101450.03
2022-07-29T20:43:29.937Z,101460.72
2022-07-29T20:46:04.158Z,101460.63
2022-07-29T20:48:33.777Z,101457.22
2022-07-29T20:51:01.707Z,101465.38
2022-07-29T20:53:29.807Z,101463.78
2022-07-29T20:55:57.745Z,101464.16
2022-07-29T20:58:25.751Z,101475.94
2022-07-29T21:00:53.714Z,101474.41
2022-07-29T21:03:21.656Z,101471.53
2022-07-29T21:05:51.551Z,101469.06
2022-07-29T21:08:19.469Z,101471.25
2022-07-29T21:10:47.410Z,101465.59
2022-07-29T21:13:15.342Z,101476.13
2022-07-29T21:15:45.862Z,101470.13
2022-07-29T21:18:27.148Z,101466.31
2022-07-29T21:20:56.554Z,101467.56
2022-07-29T21:23:24.625Z,101468.41
2022-07-29T21:25:52.897Z,101470.22
2022-07-29T21:28:30.602Z,101464.34
2022-07-29T21:31:00.602Z,101459.88
2022-07-29T21:33:30.354Z,101464.72
2022-07-29T21:36:16.007Z,101469.38
2022-07-29T21:38:47.681Z,101471.06
2022-07-29T21:41:15.837Z,101472.66
2022-07-29T21:43:43.809Z,101472.06
2022-07-29T21:46:11.747Z,101470.47
2022-07-29T21:48:44.220Z,101471.63
2022-07-29T21:51:13.970Z,101476.19
2022-07-29T21:53:41.942Z,101470.63
2022-07-29T21:56:10.948Z,101469.38
2022-07-29T21:58:43.203Z,101471.28
2022-07-29T22:01:11.312Z,101469.47
2022-07-29T22:03:39.269Z,101471.94
2022-07-29T22:06:07.357Z,101473.47
2022-07-29T22:08:36.693Z,101467.47
2022-07-29T22:11:04.621Z,101465.47
2022-07-29T22:13:32.634Z,101472.63
2022-07-29T22:16:00.553Z,101472.94
2022-07-29T22:18:28.470Z,101470.22
2022-07-29T22:20:56.549Z,101472.72
2022-07-29T22:23:24.488Z,101482.00
2022-07-29T22:25:53.817Z,101482.41
2022-07-29T22:28:21.781Z,101482.09
2022-07-29T22:30:49.783Z,101480.00
2022-07-29T22:33:18.256Z,101478.75
2022-07-29T22:35:48.463Z,101476.84
2022-07-29T22:38:17.174Z,101478.28
2022-07-29T22:40:45.152Z,101472.56
2022-07-29T22:43:14.713Z,101475.13
2022-07-29T22:45:43.010Z,101465.09
2022-07-29T22:48:11.242Z,101466.81
2022-07-29T22:50:39.566Z,101470.13
2022-07-29T22:53:07.527Z,101468.38
2022-07-29T22:55:35.505Z,101474.59
2022-07-29T22:58:03.423Z,101472.56
2022-07-29T23:00:32.837Z,101472.59
2022-07-29T23:03:00.823Z,101473.47
2022-07-29T23:05:28.777Z,101477.94
2022-07-29T23:07:56.741Z,101474.56
2022-07-29T23:10:24.683Z,101479.97
2022-07-29T23:12:52.616Z,101475.56
2022-07-29T23:15:20.786Z,101471.28
2022-07-29T23:17:50.106Z,101471.63
2022-07-29T23:20:18.054Z,101478.00
2022-07-29T23:22:46.011Z,101464.94
2022-07-29T23:25:13.994Z,101468.53
2022-07-29T23:27:42.285Z,101466.31
2022-07-29T23:30:11.080Z,101472.06
2022-07-29T23:32:39.068Z,101466.38
2022-07-29T23:35:10.290Z,101465.28
2022-07-29T23:37:39.285Z,101462.91
2022-07-29T23:40:13.614Z,101468.06
2022-07-29T23:42:42.992Z,101469.94
2022-07-29T23:45:12.152Z,101476.81
2022-07-29T23:47:40.082Z,101465.81
2022-07-29T23:50:13.191Z,101466.00
2022-07-29T23:52:41.528Z,101474.06
2022-07-29T23:55:37.497Z,101464.09
2022-07-29T23:57:57.839Z,101471.31
